KBAN

Bridgeport (MCMWT)

Bridgeport, California, USA
METAR KBAN 221652Z AUTO 00000KT 10SM OVC050 11/05 A3001 RMK AO2 SLP116 T01060050 $
Observed Flight Rules
May-22 @ 16:52 UTC (51 minutes ago) Visual Flight Rules
Visibility Clouds
10 miles
  • Overcast at 5,000' AGL
Temperatures Readings
Current 11°C / 52°F
Dewpoint 5°C / 41°F
Humidity 67%
Altimeter 30.01" Hg
Pressure 1011.6 hPa
Elevation 2057
METAR KBAN 221652Z AUTO 00000KT 10SM OVC050 11/05 A3001 RMK AO2 SLP116 T01060050 $
Observed Flight Rules
May-22 @ 16:52 UTC
(51 minutes ago)
VFR
Clouds
  • Overcast at 5,000' AGL
Temperature Dewpoint
11°C / 52°F 5°C / 41°F
Humidity Altimeter Pressure
67% 30.01" Hg 1011.6 hPa